sensor_id;sensor_type;location;lat;lon;timestamp;P1;durP1;ratioP1;P2;durP2;ratioP2
22754;SDS011;11544;42.020;23.094;2023-05-24T00:00:08;8.80;;;3.72;;
22754;SDS011;11544;42.020;23.094;2023-05-24T00:02:41;7.60;;;3.60;;
22754;SDS011;11544;42.020;23.094;2023-05-24T00:05:09;6.65;;;4.00;;
22754;SDS011;11544;42.020;23.094;2023-05-24T00:07:37;6.15;;;4.05;;
22754;SDS011;11544;42.020;23.094;2023-05-24T00:10:05;6.13;;;4.10;;
22754;SDS011;11544;42.020;23.094;2023-05-24T00:12:32;4.30;;;3.35;;
22754;SDS011;11544;42.020;23.094;2023-05-24T00:14:59;6.25;;;4.10;;
22754;SDS011;11544;42.020;23.094;2023-05-24T00:17:26;5.10;;;4.03;;
22754;SDS011;11544;42.020;23.094;2023-05-24T00:19:55;4.75;;;3.75;;
22754;SDS011;11544;42.020;23.094;2023-05-24T00:22:37;8.50;;;4.20;;
22754;SDS011;11544;42.020;23.094;2023-05-24T00:25:08;6.05;;;4.18;;
22754;SDS011;11544;42.020;23.094;2023-05-24T00:27:35;5.63;;;4.05;;
22754;SDS011;11544;42.020;23.094;2023-05-24T00:30:03;10.02;;;4.25;;
22754;SDS011;11544;42.020;23.094;2023-05-24T00:32:31;4.50;;;3.92;;
22754;SDS011;11544;42.020;23.094;2023-05-24T00:34:58;4.70;;;3.67;;
22754;SDS011;11544;42.020;23.094;2023-05-24T00:37:25;4.25;;;3.17;;
22754;SDS011;11544;42.020;23.094;2023-05-24T00:39:52;6.35;;;3.72;;
22754;SDS011;11544;42.020;23.094;2023-05-24T00:42:19;8.60;;;4.30;;
22754;SDS011;11544;42.020;23.094;2023-05-24T00:44:46;5.70;;;4.18;;
22754;SDS011;11544;42.020;23.094;2023-05-24T00:47:14;6.63;;;4.30;;
22754;SDS011;11544;42.020;23.094;2023-05-24T00:49:41;5.60;;;4.35;;
22754;SDS011;11544;42.020;23.094;2023-05-24T00:52:08;5.18;;;3.85;;
22754;SDS011;11544;42.020;23.094;2023-05-24T00:54:36;6.35;;;4.22;;
22754;SDS011;11544;42.020;23.094;2023-05-24T00:57:06;6.57;;;3.97;;
22754;SDS011;11544;42.020;23.094;2023-05-24T00:59:33;5.90;;;4.18;;
22754;SDS011;11544;42.020;23.094;2023-05-24T01:02:01;6.50;;;3.97;;
22754;SDS011;11544;42.020;23.094;2023-05-24T01:04:28;6.90;;;4.30;;
22754;SDS011;11544;42.020;23.094;2023-05-24T01:09:34;8.98;;;4.43;;
22754;SDS011;11544;42.020;23.094;2023-05-24T01:12:06;4.72;;;3.97;;
22754;SDS011;11544;42.020;23.094;2023-05-24T01:18:06;8.02;;;3.70;;
22754;SDS011;11544;42.020;23.094;2023-05-24T01:20:41;6.20;;;4.53;;
22754;SDS011;11544;42.020;23.094;2023-05-24T01:23:27;4.45;;;3.75;;
22754;SDS011;11544;42.020;23.094;2023-05-24T01:26:04;6.43;;;3.90;;
22754;SDS011;11544;42.020;23.094;2023-05-24T01:28:43;8.98;;;4.10;;
22754;SDS011;11544;42.020;23.094;2023-05-24T01:31:13;5.05;;;4.03;;
22754;SDS011;11544;42.020;23.094;2023-05-24T01:33:42;5.75;;;3.65;;
22754;SDS011;11544;42.020;23.094;2023-05-24T01:36:10;4.88;;;4.10;;
22754;SDS011;11544;42.020;23.094;2023-05-24T01:38:37;4.75;;;3.90;;
22754;SDS011;11544;42.020;23.094;2023-05-24T01:41:08;9.10;;;4.05;;
22754;SDS011;11544;42.020;23.094;2023-05-24T01:43:57;6.75;;;3.83;;
22754;SDS011;11544;42.020;23.094;2023-05-24T01:46:36;7.55;;;4.50;;
22754;SDS011;11544;42.020;23.094;2023-05-24T01:51:37;6.13;;;4.68;;
22754;SDS011;11544;42.020;23.094;2023-05-24T01:54:11;6.65;;;4.38;;
22754;SDS011;11544;42.020;23.094;2023-05-24T01:56:40;7.28;;;5.03;;
22754;SDS011;11544;42.020;23.094;2023-05-24T01:59:09;5.63;;;4.38;;
22754;SDS011;11544;42.020;23.094;2023-05-24T02:01:38;8.50;;;3.95;;
22754;SDS011;11544;42.020;23.094;2023-05-24T02:04:06;6.47;;;3.90;;
22754;SDS011;11544;42.020;23.094;2023-05-24T02:06:32;4.35;;;3.65;;
22754;SDS011;11544;42.020;23.094;2023-05-24T02:08:59;6.82;;;3.92;;
22754;SDS011;11544;42.020;23.094;2023-05-24T02:11:26;6.93;;;3.90;;
22754;SDS011;11544;42.020;23.094;2023-05-24T02:13:55;6.68;;;4.15;;
22754;SDS011;11544;42.020;23.094;2023-05-24T02:16:22;8.75;;;3.72;;
22754;SDS011;11544;42.020;23.094;2023-05-24T02:18:52;6.05;;;4.25;;
22754;SDS011;11544;42.020;23.094;2023-05-24T02:21:19;6.57;;;4.50;;
22754;SDS011;11544;42.020;23.094;2023-05-24T02:23:46;11.05;;;4.57;;
22754;SDS011;11544;42.020;23.094;2023-05-24T02:26:13;4.10;;;3.35;;
22754;SDS011;11544;42.020;23.094;2023-05-24T02:28:43;7.65;;;4.43;;
22754;SDS011;11544;42.020;23.094;2023-05-24T02:31:10;8.48;;;4.57;;
22754;SDS011;11544;42.020;23.094;2023-05-24T02:33:37;5.68;;;4.70;;
22754;SDS011;11544;42.020;23.094;2023-05-24T02:36:04;8.60;;;5.40;;
22754;SDS011;11544;42.020;23.094;2023-05-24T02:38:31;15.95;;;6.00;;
22754;SDS011;11544;42.020;23.094;2023-05-24T02:40:58;9.63;;;5.55;;
22754;SDS011;11544;42.020;23.094;2023-05-24T02:43:25;8.30;;;5.43;;
22754;SDS011;11544;42.020;23.094;2023-05-24T02:45:52;8.75;;;6.43;;
22754;SDS011;11544;42.020;23.094;2023-05-24T02:48:19;7.22;;;5.57;;
22754;SDS011;11544;42.020;23.094;2023-05-24T02:50:46;8.10;;;5.72;;
22754;SDS011;11544;42.020;23.094;2023-05-24T02:53:13;8.55;;;6.15;;
22754;SDS011;11544;42.020;23.094;2023-05-24T02:55:40;11.23;;;6.00;;
22754;SDS011;11544;42.020;23.094;2023-05-24T02:58:09;8.93;;;6.80;;
22754;SDS011;11544;42.020;23.094;2023-05-24T03:00:37;13.88;;;6.63;;
22754;SDS011;11544;42.020;23.094;2023-05-24T03:03:04;9.85;;;6.57;;
22754;SDS011;11544;42.020;23.094;2023-05-24T03:05:31;8.10;;;5.60;;
22754;SDS011;11544;42.020;23.094;2023-05-24T03:08:00;10.88;;;5.10;;
22754;SDS011;11544;42.020;23.094;2023-05-24T03:10:27;6.85;;;3.95;;
22754;SDS011;11544;42.020;23.094;2023-05-24T03:12:54;7.72;;;4.35;;
22754;SDS011;11544;42.020;23.094;2023-05-24T03:15:21;5.55;;;3.90;;
22754;SDS011;11544;42.020;23.094;2023-05-24T03:17:48;5.28;;;4.53;;
22754;SDS011;11544;42.020;23.094;2023-05-24T03:20:16;5.13;;;3.97;;
22754;SDS011;11544;42.020;23.094;2023-05-24T03:22:43;4.88;;;3.70;;
22754;SDS011;11544;42.020;23.094;2023-05-24T03:25:10;6.93;;;4.75;;
22754;SDS011;11544;42.020;23.094;2023-05-24T03:27:37;9.68;;;5.50;;
22754;SDS011;11544;42.020;23.094;2023-05-24T03:30:04;11.43;;;5.68;;
22754;SDS011;11544;42.020;23.094;2023-05-24T03:32:32;6.35;;;5.00;;
22754;SDS011;11544;42.020;23.094;2023-05-24T03:34:59;6.18;;;5.03;;
22754;SDS011;11544;42.020;23.094;2023-05-24T03:37:26;9.35;;;5.43;;
22754;SDS011;11544;42.020;23.094;2023-05-24T03:39:53;7.18;;;4.95;;
22754;SDS011;11544;42.020;23.094;2023-05-24T03:42:20;8.93;;;5.32;;
22754;SDS011;11544;42.020;23.094;2023-05-24T03:44:48;8.80;;;4.85;;
22754;SDS011;11544;42.020;23.094;2023-05-24T03:47:14;5.53;;;4.75;;
22754;SDS011;11544;42.020;23.094;2023-05-24T03:49:42;7.40;;;4.43;;
22754;SDS011;11544;42.020;23.094;2023-05-24T03:52:09;6.75;;;4.68;;
22754;SDS011;11544;42.020;23.094;2023-05-24T03:54:35;5.45;;;4.38;;
22754;SDS011;11544;42.020;23.094;2023-05-24T03:57:02;8.73;;;5.18;;
22754;SDS011;11544;42.020;23.094;2023-05-24T03:59:30;5.40;;;4.25;;
22754;SDS011;11544;42.020;23.094;2023-05-24T04:01:56;7.15;;;4.47;;
22754;SDS011;11544;42.020;23.094;2023-05-24T04:04:23;5.80;;;4.55;;
22754;SDS011;11544;42.020;23.094;2023-05-24T04:06:50;6.03;;;4.55;;
22754;SDS011;11544;42.020;23.094;2023-05-24T04:09:20;7.95;;;4.72;;
22754;SDS011;11544;42.020;23.094;2023-05-24T04:11:47;6.45;;;4.85;;
22754;SDS011;11544;42.020;23.094;2023-05-24T04:14:15;8.80;;;5.07;;
22754;SDS011;11544;42.020;23.094;2023-05-24T04:16:42;6.90;;;4.63;;
22754;SDS011;11544;42.020;23.094;2023-05-24T04:19:10;7.20;;;4.63;;
22754;SDS011;11544;42.020;23.094;2023-05-24T04:21:37;8.40;;;4.80;;
22754;SDS011;11544;42.020;23.094;2023-05-24T04:24:04;6.45;;;4.75;;
22754;SDS011;11544;42.020;23.094;2023-05-24T04:26:33;4.68;;;3.78;;
22754;SDS011;11544;42.020;23.094;2023-05-24T04:29:00;9.02;;;4.15;;
22754;SDS011;11544;42.020;23.094;2023-05-24T04:31:27;6.40;;;3.60;;
22754;SDS011;11544;42.020;23.094;2023-05-24T04:33:55;6.43;;;4.05;;
22754;SDS011;11544;42.020;23.094;2023-05-24T04:36:24;6.35;;;3.70;;
22754;SDS011;11544;42.020;23.094;2023-05-24T04:38:51;4.82;;;3.80;;
22754;SDS011;11544;42.020;23.094;2023-05-24T04:41:28;8.30;;;4.63;;
22754;SDS011;11544;42.020;23.094;2023-05-24T04:43:57;14.65;;;6.45;;
22754;SDS011;11544;42.020;23.094;2023-05-24T04:46:27;7.32;;;5.28;;
22754;SDS011;11544;42.020;23.094;2023-05-24T04:48:54;10.50;;;5.95;;
22754;SDS011;11544;42.020;23.094;2023-05-24T04:51:21;7.43;;;5.50;;
22754;SDS011;11544;42.020;23.094;2023-05-24T04:53:49;9.90;;;5.82;;
22754;SDS011;11544;42.020;23.094;2023-05-24T04:56:16;7.60;;;5.90;;
22754;SDS011;11544;42.020;23.094;2023-05-24T04:58:44;8.13;;;5.85;;
22754;SDS011;11544;42.020;23.094;2023-05-24T05:01:11;17.17;;;6.38;;
22754;SDS011;11544;42.020;23.094;2023-05-24T05:03:38;7.88;;;6.32;;
22754;SDS011;11544;42.020;23.094;2023-05-24T05:06:09;10.30;;;7.05;;
22754;SDS011;11544;42.020;23.094;2023-05-24T05:08:36;8.07;;;6.10;;
22754;SDS011;11544;42.020;23.094;2023-05-24T05:11:03;7.78;;;6.07;;
22754;SDS011;11544;42.020;23.094;2023-05-24T05:13:29;11.45;;;6.53;;
22754;SDS011;11544;42.020;23.094;2023-05-24T05:15:56;12.40;;;6.90;;
22754;SDS011;11544;42.020;23.094;2023-05-24T05:18:23;9.30;;;6.70;;
22754;SDS011;11544;42.020;23.094;2023-05-24T05:20:54;8.70;;;6.28;;
22754;SDS011;11544;42.020;23.094;2023-05-24T05:23:21;13.13;;;6.90;;
22754;SDS011;11544;42.020;23.094;2023-05-24T05:25:48;8.80;;;6.43;;
22754;SDS011;11544;42.020;23.094;2023-05-24T05:28:15;12.15;;;7.13;;
22754;SDS011;11544;42.020;23.094;2023-05-24T05:30:42;9.63;;;6.45;;
22754;SDS011;11544;42.020;23.094;2023-05-24T05:33:09;11.15;;;6.78;;
22754;SDS011;11544;42.020;23.094;2023-05-24T05:35:44;10.77;;;6.60;;
22754;SDS011;11544;42.020;23.094;2023-05-24T05:38:14;9.60;;;6.82;;
22754;SDS011;11544;42.020;23.094;2023-05-24T05:40:41;8.00;;;6.28;;
22754;SDS011;11544;42.020;23.094;2023-05-24T05:43:08;11.85;;;6.70;;
22754;SDS011;11544;42.020;23.094;2023-05-24T05:45:35;8.07;;;5.97;;
22754;SDS011;11544;42.020;23.094;2023-05-24T05:48:02;9.82;;;6.90;;
22754;SDS011;11544;42.020;23.094;2023-05-24T05:50:29;11.32;;;7.07;;
22754;SDS011;11544;42.020;23.094;2023-05-24T05:52:56;10.35;;;6.05;;
22754;SDS011;11544;42.020;23.094;2023-05-24T05:55:23;12.18;;;6.28;;
22754;SDS011;11544;42.020;23.094;2023-05-24T05:57:50;8.88;;;6.50;;
22754;SDS011;11544;42.020;23.094;2023-05-24T06:00:17;10.63;;;6.47;;
22754;SDS011;11544;42.020;23.094;2023-05-24T06:02:45;11.27;;;5.53;;
22754;SDS011;11544;42.020;23.094;2023-05-24T06:05:12;9.35;;;6.28;;
22754;SDS011;11544;42.020;23.094;2023-05-24T06:07:41;9.20;;;6.35;;
22754;SDS011;11544;42.020;23.094;2023-05-24T06:10:17;8.18;;;5.45;;
22754;SDS011;11544;42.020;23.094;2023-05-24T08:08:20;8.38;;;4.50;;
22754;SDS011;11544;42.020;23.094;2023-05-24T08:10:55;7.90;;;4.25;;
22754;SDS011;11544;42.020;23.094;2023-05-24T08:13:30;11.02;;;3.58;;
22754;SDS011;11544;42.020;23.094;2023-05-24T08:16:26;5.22;;;4.20;;
22754;SDS011;11544;42.020;23.094;2023-05-24T08:19:32;4.85;;;3.50;;
22754;SDS011;11544;42.020;23.094;2023-05-24T09:48:11;12.50;;;4.15;;
22754;SDS011;11544;42.020;23.094;2023-05-24T09:50:41;9.90;;;4.50;;
22754;SDS011;11544;42.020;23.094;2023-05-24T09:53:08;14.18;;;4.47;;
22754;SDS011;11544;42.020;23.094;2023-05-24T09:55:35;8.20;;;4.15;;
22754;SDS011;11544;42.020;23.094;2023-05-24T09:58:07;10.07;;;4.22;;
22754;SDS011;11544;42.020;23.094;2023-05-24T10:06:50;8.60;;;4.30;;
22754;SDS011;11544;42.020;23.094;2023-05-24T10:09:29;15.27;;;4.15;;
22754;SDS011;11544;42.020;23.094;2023-05-24T10:12:02;9.52;;;5.28;;
22754;SDS011;11544;42.020;23.094;2023-05-24T10:14:38;11.32;;;3.72;;
22754;SDS011;11544;42.020;23.094;2023-05-24T10:17:06;7.88;;;4.05;;
22754;SDS011;11544;42.020;23.094;2023-05-24T10:19:34;10.13;;;4.00;;
22754;SDS011;11544;42.020;23.094;2023-05-24T10:22:05;9.50;;;3.80;;
22754;SDS011;11544;42.020;23.094;2023-05-24T10:24:34;8.90;;;4.30;;
22754;SDS011;11544;42.020;23.094;2023-05-24T10:27:18;7.25;;;3.53;;
22754;SDS011;11544;42.020;23.094;2023-05-24T10:33:05;6.82;;;3.50;;
22754;SDS011;11544;42.020;23.094;2023-05-24T10:35:37;10.50;;;3.10;;
22754;SDS011;11544;42.020;23.094;2023-05-24T10:38:09;7.97;;;4.15;;
22754;SDS011;11544;42.020;23.094;2023-05-24T10:40:42;6.82;;;3.15;;
22754;SDS011;11544;42.020;23.094;2023-05-24T10:43:13;12.32;;;3.25;;
22754;SDS011;11544;42.020;23.094;2023-05-24T10:45:46;6.03;;;2.70;;
22754;SDS011;11544;42.020;23.094;2023-05-24T10:51:00;5.88;;;3.17;;
22754;SDS011;11544;42.020;23.094;2023-05-24T10:57:24;4.45;;;2.95;;
22754;SDS011;11544;42.020;23.094;2023-05-24T11:07:12;5.18;;;3.40;;
22754;SDS011;11544;42.020;23.094;2023-05-24T11:09:41;5.78;;;3.05;;
22754;SDS011;11544;42.020;23.094;2023-05-24T11:12:21;7.25;;;3.20;;
22754;SDS011;11544;42.020;23.094;2023-05-24T11:14:52;5.85;;;3.10;;
22754;SDS011;11544;42.020;23.094;2023-05-24T11:17:19;4.80;;;2.92;;
22754;SDS011;11544;42.020;23.094;2023-05-24T11:19:49;4.47;;;2.58;;
22754;SDS011;11544;42.020;23.094;2023-05-24T11:22:22;5.35;;;2.63;;
22754;SDS011;11544;42.020;23.094;2023-05-24T11:24:56;6.15;;;2.50;;
22754;SDS011;11544;42.020;23.094;2023-05-24T11:27:28;5.20;;;2.70;;
22754;SDS011;11544;42.020;23.094;2023-05-24T11:29:59;4.68;;;2.40;;
22754;SDS011;11544;42.020;23.094;2023-05-24T11:32:30;3.47;;;2.30;;
22754;SDS011;11544;42.020;23.094;2023-05-24T11:35:26;7.30;;;3.10;;
22754;SDS011;11544;42.020;23.094;2023-05-24T11:40:55;4.57;;;2.63;;
22754;SDS011;11544;42.020;23.094;2023-05-24T11:43:24;4.53;;;2.53;;
22754;SDS011;11544;42.020;23.094;2023-05-24T11:46:07;8.00;;;2.75;;
22754;SDS011;11544;42.020;23.094;2023-05-24T11:48:35;7.10;;;2.80;;
22754;SDS011;11544;42.020;23.094;2023-05-24T11:54:12;7.05;;;2.58;;
22754;SDS011;11544;42.020;23.094;2023-05-24T11:56:42;5.82;;;2.97;;
22754;SDS011;11544;42.020;23.094;2023-05-24T11:59:15;5.00;;;3.28;;
22754;SDS011;11544;42.020;23.094;2023-05-24T12:01:44;4.57;;;2.63;;
22754;SDS011;11544;42.020;23.094;2023-05-24T12:04:13;4.65;;;2.20;;
22754;SDS011;11544;42.020;23.094;2023-05-24T12:06:41;3.88;;;2.40;;
22754;SDS011;11544;42.020;23.094;2023-05-24T12:09:29;6.18;;;2.60;;
22754;SDS011;11544;42.020;23.094;2023-05-24T12:12:23;2.95;;;2.30;;
22754;SDS011;11544;42.020;23.094;2023-05-24T12:15:07;4.75;;;2.30;;
22754;SDS011;11544;42.020;23.094;2023-05-24T13:51:59;3.55;;;2.70;;
22754;SDS011;11544;42.020;23.094;2023-05-24T13:55:02;5.30;;;2.95;;
22754;SDS011;11544;42.020;23.094;2023-05-24T13:57:41;5.07;;;2.95;;
22754;SDS011;11544;42.020;23.094;2023-05-24T14:03:15;4.30;;;3.35;;
22754;SDS011;11544;42.020;23.094;2023-05-24T14:05:42;6.22;;;3.10;;
22754;SDS011;11544;42.020;23.094;2023-05-24T14:08:10;5.25;;;2.90;;
22754;SDS011;11544;42.020;23.094;2023-05-24T14:10:37;4.40;;;3.30;;
22754;SDS011;11544;42.020;23.094;2023-05-24T14:13:05;7.00;;;3.22;;
22754;SDS011;11544;42.020;23.094;2023-05-24T14:16:00;5.88;;;2.70;;
22754;SDS011;11544;42.020;23.094;2023-05-24T14:18:27;6.95;;;3.22;;
22754;SDS011;11544;42.020;23.094;2023-05-24T14:20:54;3.60;;;2.58;;
22754;SDS011;11544;42.020;23.094;2023-05-24T14:23:21;6.32;;;2.80;;
22754;SDS011;11544;42.020;23.094;2023-05-24T14:26:00;2.95;;;2.35;;
22754;SDS011;11544;42.020;23.094;2023-05-24T14:28:30;3.35;;;2.67;;
22754;SDS011;11544;42.020;23.094;2023-05-24T14:30:57;4.63;;;2.63;;
22754;SDS011;11544;42.020;23.094;2023-05-24T14:33:24;5.90;;;2.63;;
22754;SDS011;11544;42.020;23.094;2023-05-24T14:35:51;4.80;;;2.78;;
22754;SDS011;11544;42.020;23.094;2023-05-24T14:38:19;4.68;;;2.70;;
22754;SDS011;11544;42.020;23.094;2023-05-24T14:40:46;4.93;;;3.00;;
22754;SDS011;11544;42.020;23.094;2023-05-24T14:43:13;3.53;;;3.00;;
22754;SDS011;11544;42.020;23.094;2023-05-24T14:45:40;4.40;;;2.70;;
22754;SDS011;11544;42.020;23.094;2023-05-24T14:48:09;3.65;;;2.72;;
22754;SDS011;11544;42.020;23.094;2023-05-24T14:50:40;3.95;;;2.92;;
22754;SDS011;11544;42.020;23.094;2023-05-24T14:53:07;4.18;;;2.90;;
22754;SDS011;11544;42.020;23.094;2023-05-24T14:55:44;4.07;;;3.30;;
22754;SDS011;11544;42.020;23.094;2023-05-24T14:58:23;2.75;;;2.45;;
22754;SDS011;11544;42.020;23.094;2023-05-24T15:01:20;3.20;;;2.90;;
22754;SDS011;11544;42.020;23.094;2023-05-24T15:03:47;3.95;;;2.55;;
22754;SDS011;11544;42.020;23.094;2023-05-24T15:06:16;3.03;;;2.72;;
22754;SDS011;11544;42.020;23.094;2023-05-24T15:08:43;6.50;;;2.80;;
22754;SDS011;11544;42.020;23.094;2023-05-24T15:11:11;3.65;;;2.55;;
22754;SDS011;11544;42.020;23.094;2023-05-24T15:13:38;3.05;;;2.40;;
22754;SDS011;11544;42.020;23.094;2023-05-24T15:16:05;3.38;;;2.63;;
22754;SDS011;11544;42.020;23.094;2023-05-24T15:18:32;3.17;;;2.63;;
22754;SDS011;11544;42.020;23.094;2023-05-24T15:20:59;5.00;;;3.15;;
22754;SDS011;11544;42.020;23.094;2023-05-24T15:23:26;3.08;;;2.53;;
22754;SDS011;11544;42.020;23.094;2023-05-24T15:25:53;3.33;;;3.03;;
22754;SDS011;11544;42.020;23.094;2023-05-24T15:28:20;3.15;;;2.80;;
22754;SDS011;11544;42.020;23.094;2023-05-24T15:30:51;3.40;;;3.10;;
22754;SDS011;11544;42.020;23.094;2023-05-24T15:33:18;7.30;;;3.03;;
22754;SDS011;11544;42.020;23.094;2023-05-24T15:35:45;3.83;;;2.88;;
22754;SDS011;11544;42.020;23.094;2023-05-24T15:38:12;3.97;;;3.38;;
22754;SDS011;11544;42.020;23.094;2023-05-24T15:40:43;6.30;;;3.00;;
22754;SDS011;11544;42.020;23.094;2023-05-24T15:43:10;3.78;;;3.13;;
22754;SDS011;11544;42.020;23.094;2023-05-24T15:45:37;7.03;;;3.25;;
22754;SDS011;11544;42.020;23.094;2023-05-24T15:48:05;4.03;;;3.03;;
22754;SDS011;11544;42.020;23.094;2023-05-24T15:50:32;4.60;;;3.20;;
22754;SDS011;11544;42.020;23.094;2023-05-24T15:53:20;5.05;;;2.85;;
22754;SDS011;11544;42.020;23.094;2023-05-24T15:55:48;5.05;;;3.60;;
22754;SDS011;11544;42.020;23.094;2023-05-24T15:58:17;7.25;;;3.58;;
22754;SDS011;11544;42.020;23.094;2023-05-24T16:00:55;3.60;;;3.15;;
22754;SDS011;11544;42.020;23.094;2023-05-24T16:03:34;5.00;;;3.80;;
22754;SDS011;11544;42.020;23.094;2023-05-24T16:06:04;4.82;;;3.97;;
22754;SDS011;11544;42.020;23.094;2023-05-24T16:08:31;6.95;;;4.25;;
22754;SDS011;11544;42.020;23.094;2023-05-24T16:11:15;4.32;;;3.50;;
22754;SDS011;11544;42.020;23.094;2023-05-24T16:13:44;5.13;;;3.67;;
22754;SDS011;11544;42.020;23.094;2023-05-24T16:16:11;3.70;;;3.28;;
22754;SDS011;11544;42.020;23.094;2023-05-24T16:18:38;4.97;;;3.53;;
22754;SDS011;11544;42.020;23.094;2023-05-24T16:21:05;4.22;;;3.03;;
22754;SDS011;11544;42.020;23.094;2023-05-24T16:23:32;4.53;;;3.33;;
22754;SDS011;11544;42.020;23.094;2023-05-24T16:25:59;5.38;;;3.03;;
22754;SDS011;11544;42.020;23.094;2023-05-24T16:28:27;5.68;;;3.58;;
22754;SDS011;11544;42.020;23.094;2023-05-24T16:30:54;4.85;;;3.30;;
22754;SDS011;11544;42.020;23.094;2023-05-24T16:33:22;8.05;;;3.60;;
22754;SDS011;11544;42.020;23.094;2023-05-24T16:35:50;6.03;;;4.10;;
22754;SDS011;11544;42.020;23.094;2023-05-24T16:38:21;9.13;;;4.30;;
22754;SDS011;11544;42.020;23.094;2023-05-24T16:40:49;4.28;;;3.88;;
22754;SDS011;11544;42.020;23.094;2023-05-24T16:43:16;6.78;;;3.78;;
22754;SDS011;11544;42.020;23.094;2023-05-24T16:45:43;4.97;;;3.80;;
22754;SDS011;11544;42.020;23.094;2023-05-24T16:48:15;3.65;;;3.30;;
22754;SDS011;11544;42.020;23.094;2023-05-24T16:50:43;4.18;;;3.70;;
22754;SDS011;11544;42.020;23.094;2023-05-24T16:53:11;5.43;;;4.40;;
22754;SDS011;11544;42.020;23.094;2023-05-24T16:55:38;5.93;;;4.30;;
22754;SDS011;11544;42.020;23.094;2023-05-24T16:58:05;4.32;;;3.67;;
22754;SDS011;11544;42.020;23.094;2023-05-24T17:00:32;9.05;;;4.53;;
22754;SDS011;11544;42.020;23.094;2023-05-24T17:02:58;6.68;;;4.22;;
22754;SDS011;11544;42.020;23.094;2023-05-24T17:05:26;4.30;;;3.80;;
22754;SDS011;11544;42.020;23.094;2023-05-24T17:07:53;7.75;;;3.90;;
22754;SDS011;11544;42.020;23.094;2023-05-24T17:10:22;5.18;;;4.05;;
22754;SDS011;11544;42.020;23.094;2023-05-24T17:12:50;6.32;;;4.65;;
22754;SDS011;11544;42.020;23.094;2023-05-24T17:15:17;5.63;;;3.95;;
22754;SDS011;11544;42.020;23.094;2023-05-24T17:17:43;7.32;;;3.92;;
22754;SDS011;11544;42.020;23.094;2023-05-24T17:20:15;5.38;;;4.00;;
22754;SDS011;11544;42.020;23.094;2023-05-24T17:22:46;5.78;;;4.57;;
22754;SDS011;11544;42.020;23.094;2023-05-24T17:25:14;6.65;;;4.28;;
22754;SDS011;11544;42.020;23.094;2023-05-24T17:27:41;6.07;;;4.30;;
22754;SDS011;11544;42.020;23.094;2023-05-24T17:30:08;5.90;;;4.28;;
22754;SDS011;11544;42.020;23.094;2023-05-24T17:32:36;5.38;;;4.32;;
22754;SDS011;11544;42.020;23.094;2023-05-24T17:35:03;7.00;;;4.32;;
22754;SDS011;11544;42.020;23.094;2023-05-24T17:37:30;6.38;;;4.40;;
22754;SDS011;11544;42.020;23.094;2023-05-24T17:40:03;5.07;;;4.55;;
22754;SDS011;11544;42.020;23.094;2023-05-24T17:42:30;5.60;;;4.72;;
22754;SDS011;11544;42.020;23.094;2023-05-24T17:44:58;9.50;;;4.93;;
22754;SDS011;11544;42.020;23.094;2023-05-24T17:47:30;7.72;;;4.00;;
22754;SDS011;11544;42.020;23.094;2023-05-24T17:49:57;5.93;;;3.75;;
22754;SDS011;11544;42.020;23.094;2023-05-24T17:52:24;5.72;;;4.57;;
22754;SDS011;11544;42.020;23.094;2023-05-24T17:54:52;6.90;;;4.15;;
22754;SDS011;11544;42.020;23.094;2023-05-24T17:57:21;6.88;;;4.63;;
22754;SDS011;11544;42.020;23.094;2023-05-24T17:59:48;4.97;;;4.22;;
22754;SDS011;11544;42.020;23.094;2023-05-24T18:02:17;5.35;;;4.28;;
22754;SDS011;11544;42.020;23.094;2023-05-24T18:04:46;4.38;;;3.97;;
22754;SDS011;11544;42.020;23.094;2023-05-24T18:07:13;7.03;;;3.95;;
22754;SDS011;11544;42.020;23.094;2023-05-24T18:09:43;4.70;;;3.75;;
22754;SDS011;11544;42.020;23.094;2023-05-24T18:12:10;5.07;;;3.50;;
22754;SDS011;11544;42.020;23.094;2023-05-24T18:14:37;6.15;;;3.92;;
22754;SDS011;11544;42.020;23.094;2023-05-24T18:17:05;4.82;;;3.95;;
22754;SDS011;11544;42.020;23.094;2023-05-24T18:19:32;5.70;;;3.90;;
22754;SDS011;11544;42.020;23.094;2023-05-24T18:21:59;4.45;;;3.70;;
22754;SDS011;11544;42.020;23.094;2023-05-24T18:24:28;6.22;;;3.90;;
22754;SDS011;11544;42.020;23.094;2023-05-24T18:26:55;8.02;;;3.70;;
22754;SDS011;11544;42.020;23.094;2023-05-24T18:29:22;7.38;;;3.90;;
22754;SDS011;11544;42.020;23.094;2023-05-24T18:31:49;6.68;;;4.13;;
22754;SDS011;11544;42.020;23.094;2023-05-24T18:34:16;4.20;;;3.72;;
22754;SDS011;11544;42.020;23.094;2023-05-24T18:36:43;8.43;;;4.20;;
22754;SDS011;11544;42.020;23.094;2023-05-24T18:39:24;5.43;;;3.60;;
22754;SDS011;11544;42.020;23.094;2023-05-24T18:41:51;7.03;;;4.13;;
22754;SDS011;11544;42.020;23.094;2023-05-24T18:44:18;5.88;;;3.85;;
22754;SDS011;11544;42.020;23.094;2023-05-24T18:46:48;5.63;;;4.00;;
22754;SDS011;11544;42.020;23.094;2023-05-24T18:49:15;8.00;;;4.30;;
22754;SDS011;11544;42.020;23.094;2023-05-24T18:51:42;4.35;;;3.63;;
22754;SDS011;11544;42.020;23.094;2023-05-24T18:54:09;6.53;;;4.20;;
22754;SDS011;11544;42.020;23.094;2023-05-24T18:56:39;5.63;;;3.70;;
22754;SDS011;11544;42.020;23.094;2023-05-24T18:59:07;4.93;;;4.07;;
22754;SDS011;11544;42.020;23.094;2023-05-24T19:01:37;5.15;;;3.97;;
22754;SDS011;11544;42.020;23.094;2023-05-24T19:04:04;6.13;;;4.18;;
22754;SDS011;11544;42.020;23.094;2023-05-24T19:06:40;6.10;;;3.78;;
22754;SDS011;11544;42.020;23.094;2023-05-24T19:09:14;9.27;;;3.72;;
22754;SDS011;11544;42.020;23.094;2023-05-24T19:14:36;5.72;;;3.97;;
22754;SDS011;11544;42.020;23.094;2023-05-24T19:17:03;4.35;;;3.17;;
22754;SDS011;11544;42.020;23.094;2023-05-24T19:19:30;5.32;;;3.67;;
22754;SDS011;11544;42.020;23.094;2023-05-24T19:21:58;5.57;;;3.22;;
22754;SDS011;11544;42.020;23.094;2023-05-24T19:24:26;7.00;;;3.60;;
22754;SDS011;11544;42.020;23.094;2023-05-24T19:26:55;4.70;;;3.80;;
22754;SDS011;11544;42.020;23.094;2023-05-24T19:29:22;4.60;;;3.50;;
22754;SDS011;11544;42.020;23.094;2023-05-24T19:31:59;5.53;;;3.72;;
22754;SDS011;11544;42.020;23.094;2023-05-24T19:34:26;5.47;;;3.47;;
22754;SDS011;11544;42.020;23.094;2023-05-24T19:37:07;4.45;;;3.90;;
22754;SDS011;11544;42.020;23.094;2023-05-24T19:39:38;6.18;;;3.80;;
22754;SDS011;11544;42.020;23.094;2023-05-24T19:42:07;3.85;;;3.55;;
22754;SDS011;11544;42.020;23.094;2023-05-24T19:44:34;6.05;;;3.88;;
22754;SDS011;11544;42.020;23.094;2023-05-24T19:47:05;8.23;;;4.00;;
22754;SDS011;11544;42.020;23.094;2023-05-24T19:49:41;5.90;;;3.92;;
22754;SDS011;11544;42.020;23.094;2023-05-24T19:52:31;8.73;;;4.47;;
22754;SDS011;11544;42.020;23.094;2023-05-24T19:55:01;5.57;;;3.80;;
22754;SDS011;11544;42.020;23.094;2023-05-24T19:57:28;5.57;;;4.22;;
22754;SDS011;11544;42.020;23.094;2023-05-24T19:59:55;8.88;;;3.90;;
22754;SDS011;11544;42.020;23.094;2023-05-24T20:02:22;6.63;;;3.50;;
22754;SDS011;11544;42.020;23.094;2023-05-24T20:04:53;5.30;;;3.50;;
22754;SDS011;11544;42.020;23.094;2023-05-24T20:07:20;5.63;;;3.90;;
22754;SDS011;11544;42.020;23.094;2023-05-24T20:09:47;7.55;;;4.57;;
22754;SDS011;11544;42.020;23.094;2023-05-24T20:12:15;5.80;;;4.03;;
22754;SDS011;11544;42.020;23.094;2023-05-24T20:14:42;6.75;;;3.92;;
22754;SDS011;11544;42.020;23.094;2023-05-24T20:17:09;5.68;;;3.75;;
22754;SDS011;11544;42.020;23.094;2023-05-24T20:19:37;6.53;;;3.50;;
22754;SDS011;11544;42.020;23.094;2023-05-24T20:22:26;5.05;;;4.00;;
22754;SDS011;11544;42.020;23.094;2023-05-24T20:24:53;4.00;;;3.60;;
22754;SDS011;11544;42.020;23.094;2023-05-24T20:27:20;4.18;;;3.67;;